Time;durP1;ratioP1;P1;durP2;ratioP2;P2;SDS_P1;SDS_P2;PMS_P1;PMS_P2;Temp;Humidity;BMP_temperature;BMP_pressure;BME280_temperature;BME280_humidity;BME280_pressure;Samples;Min_cycle;Max_cycle;Signal;HPM_P1;HPM_P2
2023/06/07 00:00:34;;;;;;;;;;;;;;;16.42;46.89;101197.53;5060054;28;1223;-57
2023/06/07 00:02:59;;;;;;;;;;;;;;;16.30;46.60;101196.88;5055612;28;1358;-58
2023/06/07 00:05:25;;;;;;;;;;;;;;;16.19;46.23;101193.22;5059216;28;1215;-58
2023/06/07 00:07:51;;;;;;;;;;;;;;;16.05;45.95;101188.16;5052453;28;1255;-53
2023/06/07 00:10:17;;;;;;;;;;;;;;;16.98;46.68;101188.88;5052399;28;1307;-58
2023/06/07 00:12:42;;;;;;;;;;;;;;;16.42;47.37;101184.66;5052295;28;1979;-57
2023/06/07 00:15:10;;;;;;;;;;;;;;;16.33;46.88;101186.22;5057408;28;1036;-58
2023/06/07 00:17:40;;;;;;;;;;;;;;;16.13;46.80;101183.28;5053426;28;1290;-57
2023/06/07 00:20:08;;;;;;;;;;;;;;;16.22;45.96;101184.47;5058720;28;1126;-59
2023/06/07 00:22:34;;;;;;;;;;;;;;;16.84;47.08;101174.75;5046943;28;1167;-58
2023/06/07 00:25:00;;;;;;;;;;;;;;;16.34;47.26;101174.16;5058009;28;1106;-59
2023/06/07 00:27:26;;;;;;;;;;;;;;;16.30;46.72;101173.00;5046955;28;1019;-58
2023/06/07 00:29:51;;;;;;;;;;;;;;;16.19;46.34;101174.03;5039309;28;1143;-56
2023/06/07 00:32:17;;;;;;;;;;;;;;;16.12;45.90;101171.50;5038896;28;1906;-58
2023/06/07 00:34:43;;;;;;;;;;;;;;;16.14;45.62;101165.72;5031637;28;1184;-60
2023/06/07 00:37:09;;;;;;;;;;;;;;;16.14;45.44;101168.47;5058661;28;1044;-60
2023/06/07 00:39:34;;;;;;;;;;;;;;;17.04;46.91;101165.84;5048063;28;934;-60
2023/06/07 00:42:00;;;;;;;;;;;;;;;16.42;47.59;101168.19;5056813;28;1283;-59
2023/06/07 00:44:26;;;;;;;;;;;;;;;16.27;46.97;101161.72;5049262;28;1112;-59
2023/06/07 00:46:52;;;;;;;;;;;;;;;16.18;46.31;101159.44;5036796;28;1149;-61
2023/06/07 00:49:18;;;;;;;;;;;;;;;16.31;47.91;101152.69;5031527;28;1201;-60
2023/06/07 00:51:44;;;;;;;;;;;;;;;16.38;48.16;101158.81;5045068;28;1909;-60
2023/06/07 00:54:10;;;;;;;;;;;;;;;16.40;48.35;101158.53;5058973;28;1027;-61
2023/06/07 00:56:36;;;;;;;;;;;;;;;17.00;49.99;101155.63;5058533;28;1131;-61
2023/06/07 00:59:02;;;;;;;;;;;;;;;16.65;50.11;101151.56;5058791;28;1072;-62
2023/06/07 01:01:28;;;;;;;;;;;;;;;16.60;49.38;101144.13;5039578;28;1336;-60
2023/06/07 01:03:56;;;;;;;;;;;;;;;16.57;49.05;101133.69;5057851;28;942;-61
2023/06/07 01:06:22;;;;;;;;;;;;;;;16.62;48.44;101143.84;5058232;28;1013;-61
2023/06/07 01:08:48;;;;;;;;;;;;;;;16.55;48.11;101144.94;5058409;28;1265;-59
2023/06/07 01:11:14;;;;;;;;;;;;;;;16.43;47.35;101136.88;5032339;28;1902;-60
2023/06/07 01:13:40;;;;;;;;;;;;;;;16.31;46.87;101135.41;5021005;28;1120;-49
2023/06/07 01:16:07;;;;;;;;;;;;;;;16.16;46.83;101133.38;5029329;28;1532;-51
2023/06/07 01:18:33;;;;;;;;;;;;;;;16.20;46.30;101126.25;5055673;28;1152;-55
2023/06/07 01:20:59;;;;;;;;;;;;;;;16.10;46.00;101118.78;5057414;28;1122;-57
2023/06/07 01:23:28;;;;;;;;;;;;;;;16.14;45.51;101114.44;5039354;28;1524;-57
2023/06/07 01:25:55;;;;;;;;;;;;;;;16.85;47.50;101118.72;5054691;28;1560;-55
2023/06/07 01:28:21;;;;;;;;;;;;;;;16.48;48.24;101116.03;5045896;28;1060;-57
2023/06/07 01:30:47;;;;;;;;;;;;;;;16.31;47.41;101114.28;5057704;28;1087;-54
2023/06/07 01:33:13;;;;;;;;;;;;;;;16.29;46.81;101118.41;5057512;28;1906;-55
2023/06/07 01:35:39;;;;;;;;;;;;;;;16.28;46.27;101123.03;5057812;28;1157;-52
2023/06/07 01:38:04;;;;;;;;;;;;;;;16.71;47.97;101112.06;5056981;28;1100;-55
2023/06/07 01:40:30;;;;;;;;;;;;;;;16.42;47.97;101120.66;5039940;28;1215;-58
2023/06/07 01:42:55;;;;;;;;;;;;;;;16.29;47.28;101112.91;5040130;28;1148;-53
2023/06/07 01:45:21;;;;;;;;;;;;;;;16.20;46.81;101112.53;5057618;28;1203;-55
2023/06/07 01:47:46;;;;;;;;;;;;;;;16.13;46.61;101117.44;5039277;28;1164;-54
2023/06/07 01:50:19;;;;;;;;;;;;;;;16.07;46.12;101119.31;5039946;28;1144;-55
2023/06/07 01:52:45;;;;;;;;;;;;;;;16.06;45.79;101117.66;5026142;28;1956;-53
2023/06/07 01:55:10;;;;;;;;;;;;;;;16.03;45.55;101119.03;5039906;28;1219;-53
2023/06/07 01:57:51;;;;;;;;;;;;;;;17.24;47.12;101132.13;5057321;28;1108;-54
2023/06/07 02:00:17;;;;;;;;;;;;;;;16.55;47.71;101135.84;5023309;28;1143;-54
2023/06/07 02:02:45;;;;;;;;;;;;;;;16.31;47.31;101135.41;5057008;28;1035;-55
2023/06/07 02:05:16;;;;;;;;;;;;;;;16.18;46.76;101133.94;5057751;28;1132;-57
2023/06/07 02:07:48;;;;;;;;;;;;;;;16.10;46.39;101139.91;5026443;28;1061;-60
2023/06/07 02:10:14;;;;;;;;;;;;;;;15.98;46.09;101143.66;5039240;28;1110;-59
2023/06/07 02:12:39;;;;;;;;;;;;;;;16.06;45.40;101137.69;5039468;28;1898;-59
2023/06/07 02:15:05;;;;;;;;;;;;;;;16.06;45.29;101140.44;5037791;28;1246;-59
2023/06/07 02:17:31;;;;;;;;;;;;;;;16.55;46.86;101133.94;5027216;28;1430;-59
2023/06/07 02:19:57;;;;;;;;;;;;;;;16.28;46.77;101141.44;5056664;28;1126;-59
2023/06/07 02:22:23;;;;;;;;;;;;;;;17.16;47.93;101142.81;5057001;28;1218;-60
2023/06/07 02:24:48;;;;;;;;;;;;;;;16.68;48.27;101140.06;5057166;28;1144;-59
2023/06/07 02:27:14;;;;;;;;;;;;;;;16.44;47.42;101145.94;5049265;28;851;-59
2023/06/07 02:29:39;;;;;;;;;;;;;;;16.28;46.77;101142.25;5019146;28;1318;-60
2023/06/07 02:32:05;;;;;;;;;;;;;;;16.13;46.42;101144.88;5044563;28;1901;-60
2023/06/07 02:34:32;;;;;;;;;;;;;;;16.15;45.90;101145.44;5039154;28;1088;-60
2023/06/07 02:36:57;;;;;;;;;;;;;;;16.05;45.63;101138.78;5056763;28;1012;-60
2023/06/07 02:39:23;;;;;;;;;;;;;;;15.96;45.63;101145.81;5029956;28;1317;-60
2023/06/07 02:41:49;;;;;;;;;;;;;;;16.04;45.02;101153.56;5052058;28;1017;-60
2023/06/07 02:44:16;;;;;;;;;;;;;;;17.05;46.69;101145.50;5038703;28;1530;-60
2023/06/07 02:46:41;;;;;;;;;;;;;;;16.34;47.62;101143.97;5038745;28;1688;-60
2023/06/07 02:49:07;;;;;;;;;;;;;;;16.21;46.70;101136.16;5038389;28;1413;-60
2023/06/07 02:51:33;;;;;;;;;;;;;;;16.17;46.20;101129.53;5036010;28;1914;-60
2023/06/07 02:54:00;;;;;;;;;;;;;;;15.98;46.09;101129.94;5045523;28;1072;-60
2023/06/07 02:56:29;;;;;;;;;;;;;;;15.97;45.76;101130.19;5038679;28;1166;-60
2023/06/07 02:58:55;;;;;;;;;;;;;;;17.14;46.83;101132.09;5029270;28;1238;-61
2023/06/07 03:01:21;;;;;;;;;;;;;;;16.54;47.30;101139.72;5032285;28;1304;-56
2023/06/07 03:03:51;;;;;;;;;;;;;;;17.39;47.86;101145.09;5033258;28;1349;-55
2023/06/07 03:06:17;;;;;;;;;;;;;;;17.32;48.86;101138.19;5037910;28;2101;-55
2023/06/07 03:08:43;;;;;;;;;;;;;;;16.75;48.97;101140.66;5038515;28;1125;-57
2023/06/07 03:11:13;;;;;;;;;;;;;;;16.54;48.13;101135.03;5038046;28;1913;-54
2023/06/07 03:13:42;;;;;;;;;;;;;;;16.51;47.45;101135.56;5037736;28;1343;-56
2023/06/07 03:16:11;;;;;;;;;;;;;;;16.36;46.61;101139.03;5028376;28;1198;-56
2023/06/07 03:18:47;;;;;;;;;;;;;;;16.28;46.34;101142.25;5023501;28;1189;-56
2023/06/07 03:21:12;;;;;;;;;;;;;;;16.18;46.38;101136.69;5037369;28;1251;-56
2023/06/07 03:23:40;;;;;;;;;;;;;;;16.17;45.78;101140.50;5037380;28;1456;-50
2023/06/07 03:26:07;;;;;;;;;;;;;;;16.06;45.81;101143.19;5038031;28;1717;-55
2023/06/07 03:28:34;;;;;;;;;;;;;;;16.16;45.55;101149.81;5050294;28;1123;-50
2023/06/07 03:31:01;;;;;;;;;;;;;;;16.03;45.37;101148.34;5030305;28;1991;-52
2023/06/07 03:33:37;;;;;;;;;;;;;;;16.23;46.13;101150.47;5037889;28;1410;-49
2023/06/07 03:36:07;;;;;;;;;;;;;;;16.55;46.98;101153.16;5029831;28;1142;-46
2023/06/07 03:38:33;;;;;;;;;;;;;;;16.23;47.14;101153.19;5020386;28;1343;-64
2023/06/07 03:40:59;;;;;;;;;;;;;;;16.57;46.94;101166.63;5035146;28;1282;-60
2023/06/07 03:43:28;;;;;;;;;;;;;;;16.58;47.75;101162.78;5037640;28;1489;-64
2023/06/07 03:45:53;;;;;;;;;;;;;;;16.29;47.32;101160.38;5038017;28;1536;-64
2023/06/07 03:48:19;;;;;;;;;;;;;;;16.17;47.16;101156.97;5031095;28;1336;-64
2023/06/07 03:50:45;;;;;;;;;;;;;;;16.18;46.54;101164.13;5036794;28;1202;-65
2023/06/07 03:53:15;;;;;;;;;;;;;;;16.17;46.04;101160.56;5033219;28;1918;-58
2023/06/07 03:55:43;;;;;;;;;;;;;;;16.18;46.08;101164.13;5037517;28;1398;-59
2023/06/07 03:58:09;;;;;;;;;;;;;;;16.09;45.73;101163.78;5053630;28;1287;-58
2023/06/07 04:00:36;;;;;;;;;;;;;;;16.16;45.62;101161.66;5036887;28;1274;-59
2023/06/07 04:03:02;;;;;;;;;;;;;;;16.83;46.74;101167.63;5053751;28;1052;-59
2023/06/07 04:05:28;;;;;;;;;;;;;;;16.71;47.73;101167.00;5036238;28;1200;-58
2023/06/07 04:07:59;;;;;;;;;;;;;;;16.47;47.40;101161.06;5054633;28;1012;-59
2023/06/07 04:10:26;;;;;;;;;;;;;;;16.32;46.82;101161.78;5034916;28;1403;-58
2023/06/07 04:12:51;;;;;;;;;;;;;;;16.24;46.33;101149.34;5036988;28;1972;-62
2023/06/07 04:15:17;;;;;;;;;;;;;;;16.18;45.92;101148.47;5024431;28;1320;-62
2023/06/07 04:17:43;;;;;;;;;;;;;;;16.00;46.39;101146.13;5037973;28;1295;-60
2023/06/07 04:20:10;;;;;;;;;;;;;;;16.16;45.37;101149.81;5036728;28;1378;-61
2023/06/07 04:22:36;;;;;;;;;;;;;;;16.86;46.28;101153.34;5062503;28;1127;-63
2023/06/07 04:25:03;;;;;;;;;;;;;;;17.07;47.90;101143.31;5037812;28;1157;-60
2023/06/07 04:27:29;;;;;;;;;;;;;;;16.58;47.91;101146.31;5018234;28;1206;-61
2023/06/07 04:29:57;;;;;;;;;;;;;;;16.48;47.21;101146.22;5036968;28;1218;-63
2023/06/07 04:32:24;;;;;;;;;;;;;;;16.99;48.26;101148.50;5036829;28;1902;-63
2023/06/07 04:34:53;;;;;;;;;;;;;;;16.65;47.97;101149.66;5039838;28;1196;-60
2023/06/07 04:37:20;;;;;;;;;;;;;;;16.57;47.25;101152.91;5040701;28;1128;-63
2023/06/07 04:39:48;;;;;;;;;;;;;;;16.46;46.99;101153.91;5058452;28;1211;-62
2023/06/07 04:42:18;;;;;;;;;;;;;;;16.40;46.50;101162.09;5040796;28;1254;-63
2023/06/07 04:44:45;;;;;;;;;;;;;;;16.34;46.37;101163.16;5040556;28;1130;-63
2023/06/07 04:47:15;;;;;;;;;;;;;;;16.35;46.15;101169.47;5040839;28;1147;-58
2023/06/07 04:49:42;;;;;;;;;;;;;;;16.75;46.66;101173.59;5041087;28;1267;-61
2023/06/07 04:52:08;;;;;;;;;;;;;;;16.69;47.42;101175.50;5051799;28;1901;-62
2023/06/07 04:54:36;;;;;;;;;;;;;;;16.51;47.07;101173.16;5038471;28;1131;-54
2023/06/07 04:57:04;;;;;;;;;;;;;;;17.50;45.80;101172.59;5038818;28;1407;-56
2023/06/07 04:59:34;;;;;;;;;;;;;;;17.36;46.23;101172.28;5040943;28;1119;-57
2023/06/07 05:02:05;;;;;;;;;;;;;;;16.97;47.37;101176.25;5040071;28;1389;-57
2023/06/07 05:04:32;;;;;;;;;;;;;;;16.84;47.91;101171.19;5039753;28;1103;-58
2023/06/07 05:06:58;;;;;;;;;;;;;;;16.69;48.36;101167.25;5058127;28;1164;-58
2023/06/07 05:09:25;;;;;;;;;;;;;;;16.58;48.78;101168.28;5040715;28;1368;-59
2023/06/07 05:11:51;;;;;;;;;;;;;;;16.50;49.37;101168.78;5040014;28;1890;-49
2023/06/07 05:14:17;;;;;;;;;;;;;;;16.40;49.80;101161.28;5040040;28;1210;-56
2023/06/07 05:16:44;;;;;;;;;;;;;;;16.36;49.99;101160.97;5044633;28;1114;-55
2023/06/07 05:19:11;;;;;;;;;;;;;;;16.29;50.11;101163.13;5041780;28;1150;-55
2023/06/07 05:21:40;;;;;;;;;;;;;;;16.24;50.54;101158.44;5039381;28;1278;-56
2023/06/07 05:24:05;;;;;;;;;;;;;;;16.20;50.49;101156.44;5039431;28;1068;-48
2023/06/07 05:26:31;;;;;;;;;;;;;;;16.12;50.74;101162.41;5057979;28;1024;-54
2023/06/07 05:28:57;;;;;;;;;;;;;;;16.09;51.08;101161.03;5057285;28;1101;-57
2023/06/07 05:31:29;;;;;;;;;;;;;;;15.98;51.28;101162.84;5057749;28;1898;-52
2023/06/07 05:33:55;;;;;;;;;;;;;;;15.98;51.41;101165.59;5039907;28;1119;-55
2023/06/07 05:36:21;;;;;;;;;;;;;;;15.94;51.79;101167.19;5038965;28;1220;-57
2023/06/07 05:38:47;;;;;;;;;;;;;;;15.90;51.73;101163.31;5040179;28;1324;-57
2023/06/07 05:41:12;;;;;;;;;;;;;;;15.88;51.96;101166.31;5039336;28;1223;-56
2023/06/07 05:43:38;;;;;;;;;;;;;;;15.85;52.06;101166.84;5039216;28;1292;-57
2023/06/07 05:46:05;;;;;;;;;;;;;;;15.83;52.18;101168.19;5038496;28;1259;-56
2023/06/07 05:48:31;;;;;;;;;;;;;;;15.79;52.37;101167.03;5039458;28;1405;-58
2023/06/07 05:50:57;;;;;;;;;;;;;;;15.75;52.50;101161.22;5054879;28;1195;-56
2023/06/07 05:53:23;;;;;;;;;;;;;;;15.69;52.75;101163.06;5031244;28;1979;-57
2023/06/07 05:55:49;;;;;;;;;;;;;;;15.69;52.82;101157.59;5047418;28;1310;-60
2023/06/07 05:58:14;;;;;;;;;;;;;;;15.68;52.87;101161.44;5047961;28;1223;-56
2023/06/07 06:00:44;;;;;;;;;;;;;;;15.68;52.73;101161.44;5046217;28;1431;-58
2023/06/07 06:03:09;;;;;;;;;;;;;;;15.60;53.08;101164.63;5036960;28;1211;-59
2023/06/07 06:05:35;;;;;;;;;;;;;;;15.59;53.06;101167.66;5055646;28;1392;-59
2023/06/07 06:08:02;;;;;;;;;;;;;;;15.55;53.13;101170.06;5044214;28;1035;-56
2023/06/07 06:10:27;;;;;;;;;;;;;;;15.54;53.45;101171.13;5057522;28;1020;-59
2023/06/07 06:12:53;;;;;;;;;;;;;;;15.51;53.43;101168.91;5057184;28;1981;-57
2023/06/07 06:15:19;;;;;;;;;;;;;;;15.55;53.25;101164.56;5039191;28;1267;-57
2023/06/07 06:17:44;;;;;;;;;;;;;;;17.06;50.32;101166.38;5052729;28;1417;-58
2023/06/07 06:20:11;;;;;;;;;;;;;;;16.57;51.50;101161.13;5047742;28;1176;-58
2023/06/07 06:22:36;;;;;;;;;;;;;;;16.15;52.98;101164.66;5057017;28;1112;-57
2023/06/07 06:25:02;;;;;;;;;;;;;;;16.00;53.20;101163.41;5056645;28;1084;-57
2023/06/07 06:27:28;;;;;;;;;;;;;;;15.92;53.53;101163.88;5055820;28;1020;-56
2023/06/07 06:29:53;;;;;;;;;;;;;;;15.86;53.51;101157.50;5056570;28;857;-56
2023/06/07 06:32:19;;;;;;;;;;;;;;;15.80;53.72;101157.75;5056196;28;1918;-58
2023/06/07 06:34:45;;;;;;;;;;;;;;;15.77;53.67;101159.06;5056341;28;1174;-57
2023/06/07 06:37:10;;;;;;;;;;;;;;;15.72;53.81;101161.75;5056578;28;1079;-57
2023/06/07 06:39:36;;;;;;;;;;;;;;;15.65;53.92;101166.59;5056409;28;1273;-59
2023/06/07 06:42:02;;;;;;;;;;;;;;;15.68;54.06;101166.94;5055894;28;1223;-58
2023/06/07 06:44:47;;;;;;;;;;;;;;;15.63;53.70;101166.88;5024990;28;1092;-60
2023/06/07 06:47:13;;;;;;;;;;;;;;;15.55;53.96;101165.38;5055936;28;1103;-62
2023/06/07 06:49:39;;;;;;;;;;;;;;;15.51;54.29;101167.00;5055988;28;1116;-64
2023/06/07 06:52:05;;;;;;;;;;;;;;;15.50;54.09;101172.72;5056343;28;2372;-63
2023/06/07 06:54:31;;;;;;;;;;;;;;;16.32;53.03;101157.09;5055731;28;1243;-57
2023/06/07 06:56:56;;;;;;;;;;;;;;;17.06;51.46;101157.31;5045354;28;1528;-55
2023/06/07 06:59:22;;;;;;;;;;;;;;;16.31;53.66;101152.69;5056073;28;1052;-56
2023/06/07 07:01:48;;;;;;;;;;;;;;;16.06;53.99;101156.06;5056333;28;1115;-56
2023/06/07 07:04:13;;;;;;;;;;;;;;;15.98;54.29;101160.13;5041954;28;1168;-55
2023/06/07 07:06:40;;;;;;;;;;;;;;;15.86;54.36;101157.50;5055579;28;878;-55
2023/06/07 07:09:05;;;;;;;;;;;;;;;15.82;54.64;101161.03;5055911;28;1000;-55
2023/06/07 07:11:31;;;;;;;;;;;;;;;15.81;54.35;101151.16;5056011;28;1926;-55
2023/06/07 07:13:57;;;;;;;;;;;;;;;15.76;54.23;101159.31;5056332;28;1056;-55
2023/06/07 07:16:23;;;;;;;;;;;;;;;15.71;54.74;101154.59;5055350;28;1321;-57
2023/06/07 07:18:48;;;;;;;;;;;;;;;15.70;54.57;101164.75;5054860;28;1010;-59
2023/06/07 07:21:14;;;;;;;;;;;;;;;15.63;54.77;101164.13;5055991;28;1104;-55
2023/06/07 07:23:39;;;;;;;;;;;;;;;15.62;54.71;101161.63;5055698;28;1059;-55
2023/06/07 07:26:05;;;;;;;;;;;;;;;15.57;54.79;101162.38;5055612;28;1128;-56
2023/06/07 07:28:30;;;;;;;;;;;;;;;16.29;53.77;101165.88;5055411;28;1501;-54
2023/06/07 07:30:56;;;;;;;;;;;;;;;16.90;52.62;101176.47;5055881;28;1162;-57
2023/06/07 07:33:22;;;;;;;;;;;;;;;16.27;54.05;101169.94;5055051;28;1938;-56
2023/06/07 07:35:47;;;;;;;;;;;;;;;16.06;54.91;101173.34;5053846;28;1406;-55
2023/06/07 07:38:15;;;;;;;;;;;;;;;15.94;55.14;101180.09;5054996;28;1019;-48
2023/06/07 07:40:43;;;;;;;;;;;;;;;15.89;55.06;101184.44;5054946;28;1099;-53
2023/06/07 07:43:10;;;;;;;;;;;;;;;15.82;54.87;101178.34;5056020;28;1048;-54
2023/06/07 07:45:36;;;;;;;;;;;;;;;15.79;55.09;101188.97;5041925;28;1180;-51
2023/06/07 07:48:02;;;;;;;;;;;;;;;15.73;54.98;101175.19;5054410;28;1250;-57
2023/06/07 07:50:27;;;;;;;;;;;;;;;15.70;55.21;101186.66;5055432;28;1059;-57
2023/06/07 07:52:54;;;;;;;;;;;;;;;15.63;55.27;101180.56;5055283;28;1910;-58
2023/06/07 07:55:23;;;;;;;;;;;;;;;15.64;55.23;101176.75;5049993;28;1230;-58
2023/06/07 07:57:49;;;;;;;;;;;;;;;15.58;55.20;101172.28;5055637;28;1092;-60
2023/06/07 08:00:16;;;;;;;;;;;;;;;16.90;53.83;101167.38;5055550;28;1021;-55
2023/06/07 08:02:41;;;;;;;;;;;;;;;16.75;54.20;101162.63;5053514;28;1092;-57
2023/06/07 08:05:07;;;;;;;;;;;;;;;16.28;55.53;101161.47;5038256;28;1140;-57
2023/06/07 08:07:33;;;;;;;;;;;;;;;16.08;55.55;101170.34;5054914;28;1032;-56
2023/06/07 08:09:58;;;;;;;;;;;;;;;15.99;55.51;101166.41;5058698;28;1140;-56
2023/06/07 08:12:24;;;;;;;;;;;;;;;15.90;55.75;101166.06;5059285;28;1988;-56
2023/06/07 08:14:49;;;;;;;;;;;;;;;15.89;55.47;101167.16;5057348;28;1108;-57
2023/06/07 08:17:15;;;;;;;;;;;;;;;15.84;55.41;101158.88;5058645;28;1006;-57
2023/06/07 08:19:41;;;;;;;;;;;;;;;15.81;55.46;101162.13;5059006;28;1016;-57
2023/06/07 08:22:06;;;;;;;;;;;;;;;15.74;55.52;101165.88;5058943;28;1075;-56
2023/06/07 08:24:32;;;;;;;;;;;;;;;15.73;55.42;101164.22;5058402;28;1044;-58
2023/06/07 08:26:57;;;;;;;;;;;;;;;15.69;55.59;101167.75;5058201;28;997;-57
2023/06/07 08:29:23;;;;;;;;;;;;;;;15.68;55.56;101172.41;5058101;28;1011;-55
2023/06/07 08:31:48;;;;;;;;;;;;;;;15.60;55.43;101175.59;5057168;28;1898;-51
2023/06/07 08:34:14;;;;;;;;;;;;;;;15.59;55.37;101179.44;5058737;28;1429;-54
2023/06/07 08:36:40;;;;;;;;;;;;;;;15.54;55.56;101171.97;5058910;28;1203;-54
2023/06/07 08:39:07;;;;;;;;;;;;;;;16.93;55.43;101166.88;5058909;28;1067;-56
2023/06/07 08:41:32;;;;;;;;;;;;;;;17.23;55.73;101170.88;5057936;28;1179;-54
2023/06/07 08:43:58;;;;;;;;;;;;;;;16.60;57.18;101175.13;5058640;28;1091;-52
2023/06/07 08:46:23;;;;;;;;;;;;;;;16.40;57.46;101173.09;5058207;28;1126;-54
2023/06/07 08:48:49;;;;;;;;;;;;;;;16.24;57.14;101174.03;5056337;28;1076;-52
2023/06/07 08:51:15;;;;;;;;;;;;;;;16.18;56.67;101181.41;5040289;28;1977;-53
2023/06/07 08:53:48;;;;;;;;;;;;;;;16.10;56.68;101184.63;5039482;28;1179;-54
2023/06/07 08:56:15;;;;;;;;;;;;;;;16.00;56.42;101182.59;5040217;28;1017;-53
2023/06/07 08:58:41;;;;;;;;;;;;;;;15.92;56.51;101180.34;5057567;28;1075;-51
2023/06/07 09:01:07;;;;;;;;;;;;;;;15.93;55.99;101183.91;5058120;28;1041;-52
2023/06/07 09:03:33;;;;;;;;;;;;;;;15.89;56.15;101178.13;5058103;28;1219;-54
2023/06/07 09:05:59;;;;;;;;;;;;;;;15.85;55.93;101179.72;5058239;28;1191;-53
2023/06/07 09:08:25;;;;;;;;;;;;;;;15.80;56.08;101179.69;5057894;28;1071;-50
2023/06/07 09:10:51;;;;;;;;;;;;;;;15.76;55.90;101178.50;5057715;28;1152;-53
2023/06/07 09:13:19;;;;;;;;;;;;;;;15.77;55.68;101185.63;5058089;28;1981;-52
2023/06/07 09:15:47;;;;;;;;;;;;;;;15.72;55.86;101190.00;5058341;28;1103;-52
2023/06/07 09:18:12;;;;;;;;;;;;;;;15.64;55.75;101184.97;5052674;28;1012;-51
2023/06/07 09:20:38;;;;;;;;;;;;;;;15.64;55.66;101181.38;5049057;28;1128;-53
2023/06/07 09:23:08;;;;;;;;;;;;;;;15.63;55.54;101179.75;5057935;28;1114;-51
2023/06/07 09:25:35;;;;;;;;;;;;;;;15.62;55.63;101184.38;5057383;28;1027;-54
2023/06/07 09:28:04;;;;;;;;;;;;;;;15.57;55.60;101179.69;5057385;28;1111;-49
2023/06/07 09:30:29;;;;;;;;;;;;;;;15.59;55.71;101178.59;5057629;28;1292;-53
2023/06/07 09:32:55;;;;;;;;;;;;;;;16.90;55.76;101175.63;5057406;28;1913;-55
2023/06/07 09:35:21;;;;;;;;;;;;;;;16.77;56.35;101182.41;5058228;28;1103;-56
2023/06/07 09:37:47;;;;;;;;;;;;;;;16.36;56.89;101185.66;5058067;28;1059;-55
2023/06/07 09:40:13;;;;;;;;;;;;;;;16.17;56.57;101184.41;5058106;28;1124;-51
2023/06/07 09:42:39;;;;;;;;;;;;;;;16.05;56.68;101192.81;5057642;28;1057;-54
2023/06/07 09:45:15;;;;;;;;;;;;;;;15.97;56.64;101194.09;5057663;28;1100;-59
2023/06/07 09:47:43;;;;;;;;;;;;;;;15.91;56.29;101185.00;5057621;28;1148;-56
2023/06/07 09:50:09;;;;;;;;;;;;;;;15.89;56.20;101186.34;5039989;28;1059;-54
2023/06/07 09:52:34;;;;;;;;;;;;;;;15.81;55.91;101198.63;5057702;28;1963;-57
2023/06/07 09:55:02;;;;;;;;;;;;;;;15.77;56.04;101191.13;5039744;28;1060;-56
2023/06/07 09:57:28;;;;;;;;;;;;;;;15.74;55.77;101196.03;5057579;28;1683;-58
2023/06/07 10:00:07;;;;;;;;;;;;;;;15.69;55.79;101195.97;5057630;28;1159;-58
2023/06/07 10:02:38;;;;;;;;;;;;;;;15.65;55.83;101189.34;5057424;28;1144;-54
2023/06/07 10:05:04;;;;;;;;;;;;;;;15.64;55.82;101184.13;5057631;28;1199;-61
2023/06/07 10:07:33;;;;;;;;;;;;;;;15.60;55.68;101182.97;5056987;28;927;-56
2023/06/07 10:09:58;;;;;;;;;;;;;;;15.57;55.71;101174.19;5037355;28;1447;-53
2023/06/07 10:12:28;;;;;;;;;;;;;;;15.56;55.50;101185.44;5039522;28;1972;-55
2023/06/07 10:14:54;;;;;;;;;;;;;;;16.79;55.46;101179.38;5057156;28;1036;-57
2023/06/07 10:17:20;;;;;;;;;;;;;;;16.89;55.86;101174.00;5039718;28;1017;-52
2023/06/07 10:19:48;;;;;;;;;;;;;;;16.36;56.84;101176.63;5039695;28;1043;-52
2023/06/07 10:22:17;;;;;;;;;;;;;;;16.16;56.72;101177.25;5057087;28;1169;-51
2023/06/07 10:25:08;;;;;;;;;;;;;;;16.03;56.81;101179.38;5039174;28;1172;-56
2023/06/07 10:27:38;;;;;;;;;;;;;;;15.97;56.50;101174.09;5053983;28;1635;-56
2023/06/07 10:30:09;;;;;;;;;;;;;;;15.90;56.37;101168.81;5056741;28;1223;-54
2023/06/07 10:32:36;;;;;;;;;;;;;;;15.84;56.00;101164.38;5038512;28;1973;-57
2023/06/07 10:35:02;;;;;;;;;;;;;;;15.81;55.90;101175.84;5039050;28;1041;-55
2023/06/07 10:37:33;;;;;;;;;;;;;;;15.77;56.01;101171.91;5056910;28;1055;-57
2023/06/07 10:39:59;;;;;;;;;;;;;;;15.74;55.66;101176.84;5057126;28;1072;-58
2023/06/07 10:42:24;;;;;;;;;;;;;;;15.75;55.74;101166.69;5038867;28;1112;-55
2023/06/07 10:44:50;;;;;;;;;;;;;;;15.67;55.53;101165.25;5038963;28;1064;-56
2023/06/07 10:47:22;;;;;;;;;;;;;;;15.62;55.71;101167.94;5055905;28;1411;-56
2023/06/07 10:49:48;;;;;;;;;;;;;;;15.61;55.65;101165.47;5055847;28;1081;-54
2023/06/07 10:52:16;;;;;;;;;;;;;;;15.55;55.74;101162.66;5053742;28;1967;-53
2023/06/07 10:54:42;;;;;;;;;;;;;;;16.25;55.73;101172.97;5027735;28;1005;-54
2023/06/07 10:57:08;;;;;;;;;;;;;;;17.10;55.19;101164.75;5056027;28;1064;-53
2023/06/07 10:59:34;;;;;;;;;;;;;;;16.38;56.77;101158.81;5055461;28;1142;-54
2023/06/07 11:02:18;;;;;;;;;;;;;;;16.14;56.75;101149.28;5055482;28;1254;-55
2023/06/07 11:04:52;;;;;;;;;;;;;;;16.04;56.51;101145.34;5056274;28;1131;-55
2023/06/07 11:07:18;;;;;;;;;;;;;;;15.91;56.75;101154.00;5055781;28;882;-53
2023/06/07 11:09:44;;;;;;;;;;;;;;;15.87;56.37;101152.88;5056115;28;1106;-58
2023/06/07 11:12:28;;;;;;;;;;;;;;;15.86;56.30;101154.78;5055600;28;1967;-55
2023/06/07 11:15:12;;;;;;;;;;;;;;;15.76;56.26;101149.16;5055068;28;1028;-55
2023/06/07 11:17:53;;;;;;;;;;;;;;;15.70;55.90;101159.25;5055852;28;1195;-55
2023/06/07 11:20:41;;;;;;;;;;;;;;;15.72;56.03;101157.09;5055287;28;978;-56
2023/06/07 11:23:26;;;;;;;;;;;;;;;15.66;55.93;101152.63;5055082;28;1222;-55
2023/06/07 11:25:51;;;;;;;;;;;;;;;15.63;55.97;101155.91;5042069;28;1089;-55
2023/06/07 11:28:20;;;;;;;;;;;;;;;15.62;55.64;101148.75;5055492;28;1004;-55
2023/06/07 11:30:46;;;;;;;;;;;;;;;15.61;55.83;101151.75;5054802;28;1052;-49
2023/06/07 11:33:15;;;;;;;;;;;;;;;15.55;55.82;101151.69;5037839;28;1902;-55
2023/06/07 11:35:41;;;;;;;;;;;;;;;16.57;55.84;101155.66;5055356;28;1160;-55
2023/06/07 11:38:07;;;;;;;;;;;;;;;17.14;55.37;101147.72;5044723;28;1247;-56
2023/06/07 11:40:33;;;;;;;;;;;;;;;16.42;56.98;101151.72;5052886;28;1072;-56
2023/06/07 11:42:58;;;;;;;;;;;;;;;16.23;56.97;101144.97;5055951;28;1087;-57
2023/06/07 11:45:24;;;;;;;;;;;;;;;16.07;56.79;101150.34;5058935;28;1172;-56
2023/06/07 11:47:49;;;;;;;;;;;;;;;16.04;56.36;101153.56;5059307;28;1143;-55
2023/06/07 11:50:15;;;;;;;;;;;;;;;15.90;56.45;101144.13;5059568;28;1076;-56
2023/06/07 11:52:41;;;;;;;;;;;;;;;15.87;56.57;101150.13;5059101;28;1976;-52
2023/06/07 11:55:09;;;;;;;;;;;;;;;15.84;56.34;101147.91;5059083;28;862;-54
2023/06/07 11:57:38;;;;;;;;;;;;;;;15.81;56.21;101145.66;5052591;28;1220;-51
2023/06/07 12:00:07;;;;;;;;;;;;;;;15.77;56.04;101141.75;5056480;28;1227;-54
2023/06/07 12:02:40;;;;;;;;;;;;;;;15.70;56.01;101145.53;5059532;28;1096;-52
2023/06/07 12:05:06;;;;;;;;;;;;;;;15.70;56.01;101133.75;5059183;28;1068;-51
2023/06/07 12:07:31;;;;;;;;;;;;;;;15.71;55.77;101127.16;5032594;28;1243;-55
2023/06/07 12:09:57;;;;;;;;;;;;;;;15.65;55.98;101122.75;5058957;28;1108;-57
2023/06/07 12:12:23;;;;;;;;;;;;;;;15.60;55.88;101126.25;5058682;28;1987;-57
2023/06/07 12:14:58;;;;;;;;;;;;;;;15.61;55.98;101121.59;5057699;28;1211;-54
2023/06/07 12:17:23;;;;;;;;;;;;;;;16.23;56.32;101123.03;5048191;28;1211;-56
2023/06/07 12:19:49;;;;;;;;;;;;;;;17.33;55.58;101110.41;5059077;28;1000;-54
2023/06/07 12:22:14;;;;;;;;;;;;;;;16.59;56.93;101112.25;5059127;28;1007;-55
2023/06/07 12:24:40;;;;;;;;;;;;;;;16.28;57.35;101116.72;5059401;28;1156;-56
2023/06/07 12:27:06;;;;;;;;;;;;;;;16.14;57.02;101111.69;5057884;28;885;-56
2023/06/07 12:29:32;;;;;;;;;;;;;;;16.06;56.68;101110.25;5058780;28;1123;-55
2023/06/07 12:31:59;;;;;;;;;;;;;;;16.00;56.57;101111.28;5058243;28;1905;-52
2023/06/07 12:34:34;;;;;;;;;;;;;;;15.98;56.65;101102.50;5058519;28;1108;-51
2023/06/07 12:37:00;;;;;;;;;;;;;;;15.90;56.29;101108.47;5058082;28;1190;-56
2023/06/07 12:39:27;;;;;;;;;;;;;;;15.85;56.25;101105.69;5058710;28;1293;-55
2023/06/07 12:41:52;;;;;;;;;;;;;;;15.80;56.20;101103.72;5058464;28;1027;-56
2023/06/07 12:44:18;;;;;;;;;;;;;;;15.79;56.10;101095.72;5057568;28;1095;-58
2023/06/07 12:46:43;;;;;;;;;;;;;;;15.77;56.15;101097.88;5049353;28;1243;-55